sensor_id;sensor_type;location;lat;lon;timestamp;P1;durP1;ratioP1;P2;durP2;ratioP2
78167;SDS011;67410;42.698;23.378;2024-01-30T00:02:14;8.40;;;4.80;;
78167;SDS011;67410;42.698;23.378;2024-01-30T00:04:40;8.00;;;5.22;;
78167;SDS011;67410;42.698;23.378;2024-01-30T00:07:06;13.20;;;5.63;;
78167;SDS011;67410;42.698;23.378;2024-01-30T00:09:33;13.13;;;5.68;;
78167;SDS011;67410;42.698;23.378;2024-01-30T00:11:59;20.23;;;7.75;;
78167;SDS011;67410;42.698;23.378;2024-01-30T00:14:25;25.20;;;10.00;;
78167;SDS011;67410;42.698;23.378;2024-01-30T00:16:51;41.67;;;13.18;;
78167;SDS011;67410;42.698;23.378;2024-01-30T00:19:17;24.75;;;10.02;;
78167;SDS011;67410;42.698;23.378;2024-01-30T00:21:43;15.40;;;6.22;;
78167;SDS011;67410;42.698;23.378;2024-01-30T00:24:09;21.25;;;6.63;;
78167;SDS011;67410;42.698;23.378;2024-01-30T00:26:36;16.65;;;7.60;;
78167;SDS011;67410;42.698;23.378;2024-01-30T00:29:02;24.92;;;7.75;;
78167;SDS011;67410;42.698;23.378;2024-01-30T00:31:28;21.40;;;8.15;;
78167;SDS011;67410;42.698;23.378;2024-01-30T00:33:55;21.00;;;6.93;;
78167;SDS011;67410;42.698;23.378;2024-01-30T00:36:21;23.63;;;9.32;;
78167;SDS011;67410;42.698;23.378;2024-01-30T00:38:47;34.58;;;11.55;;
78167;SDS011;67410;42.698;23.378;2024-01-30T00:41:13;34.47;;;11.15;;
78167;SDS011;67410;42.698;23.378;2024-01-30T00:43:40;17.42;;;7.90;;
78167;SDS011;67410;42.698;23.378;2024-01-30T00:46:06;28.60;;;10.23;;
78167;SDS011;67410;42.698;23.378;2024-01-30T00:48:32;18.33;;;8.68;;
78167;SDS011;67410;42.698;23.378;2024-01-30T00:50:58;20.00;;;8.43;;
78167;SDS011;67410;42.698;23.378;2024-01-30T00:53:24;14.10;;;6.60;;
78167;SDS011;67410;42.698;23.378;2024-01-30T00:55:50;13.32;;;6.50;;
78167;SDS011;67410;42.698;23.378;2024-01-30T00:58:16;17.13;;;7.57;;
78167;SDS011;67410;42.698;23.378;2024-01-30T01:00:45;28.63;;;10.35;;
78167;SDS011;67410;42.698;23.378;2024-01-30T01:03:11;21.13;;;8.77;;
78167;SDS011;67410;42.698;23.378;2024-01-30T01:05:37;22.63;;;9.65;;
78167;SDS011;67410;42.698;23.378;2024-01-30T01:08:04;20.40;;;8.18;;
78167;SDS011;67410;42.698;23.378;2024-01-30T01:10:31;18.20;;;8.13;;
78167;SDS011;67410;42.698;23.378;2024-01-30T01:12:57;18.73;;;8.20;;
78167;SDS011;67410;42.698;23.378;2024-01-30T01:15:23;17.63;;;7.32;;
78167;SDS011;67410;42.698;23.378;2024-01-30T01:17:49;22.73;;;8.80;;
78167;SDS011;67410;42.698;23.378;2024-01-30T01:20:15;39.38;;;13.77;;
78167;SDS011;67410;42.698;23.378;2024-01-30T01:22:41;47.22;;;17.92;;
78167;SDS011;67410;42.698;23.378;2024-01-30T01:25:08;38.05;;;14.82;;
78167;SDS011;67410;42.698;23.378;2024-01-30T01:27:34;46.65;;;17.00;;
78167;SDS011;67410;42.698;23.378;2024-01-30T01:30:07;39.33;;;14.10;;
78167;SDS011;67410;42.698;23.378;2024-01-30T01:32:35;58.33;;;20.42;;
78167;SDS011;67410;42.698;23.378;2024-01-30T01:35:02;57.80;;;23.23;;
78167;SDS011;67410;42.698;23.378;2024-01-30T01:37:31;46.97;;;17.48;;
78167;SDS011;67410;42.698;23.378;2024-01-30T01:39:57;46.10;;;17.27;;
78167;SDS011;67410;42.698;23.378;2024-01-30T01:42:23;36.78;;;15.43;;
78167;SDS011;67410;42.698;23.378;2024-01-30T01:44:49;24.67;;;10.85;;
78167;SDS011;67410;42.698;23.378;2024-01-30T01:47:15;21.42;;;10.02;;
78167;SDS011;67410;42.698;23.378;2024-01-30T01:49:41;25.52;;;10.02;;
78167;SDS011;67410;42.698;23.378;2024-01-30T01:52:08;22.63;;;9.55;;
78167;SDS011;67410;42.698;23.378;2024-01-30T01:54:35;24.73;;;10.35;;
78167;SDS011;67410;42.698;23.378;2024-01-30T01:57:02;29.92;;;12.50;;
78167;SDS011;67410;42.698;23.378;2024-01-30T01:59:29;17.75;;;8.70;;
78167;SDS011;67410;42.698;23.378;2024-01-30T02:01:55;23.67;;;9.98;;
78167;SDS011;67410;42.698;23.378;2024-01-30T02:04:22;24.20;;;9.32;;
78167;SDS011;67410;42.698;23.378;2024-01-30T02:06:48;13.55;;;6.50;;
78167;SDS011;67410;42.698;23.378;2024-01-30T02:09:15;16.30;;;7.90;;
78167;SDS011;67410;42.698;23.378;2024-01-30T02:11:41;16.20;;;8.05;;
78167;SDS011;67410;42.698;23.378;2024-01-30T02:14:08;15.60;;;7.28;;
78167;SDS011;67410;42.698;23.378;2024-01-30T02:16:34;14.23;;;5.68;;
78167;SDS011;67410;42.698;23.378;2024-01-30T02:19:00;9.27;;;4.68;;
78167;SDS011;67410;42.698;23.378;2024-01-30T02:21:26;17.23;;;7.70;;
78167;SDS011;67410;42.698;23.378;2024-01-30T02:23:52;17.35;;;6.80;;
78167;SDS011;67410;42.698;23.378;2024-01-30T02:26:22;29.00;;;8.60;;
78167;SDS011;67410;42.698;23.378;2024-01-30T02:28:48;16.52;;;5.95;;
78167;SDS011;67410;42.698;23.378;2024-01-30T02:31:14;15.73;;;5.63;;
78167;SDS011;67410;42.698;23.378;2024-01-30T02:33:40;16.20;;;6.28;;
78167;SDS011;67410;42.698;23.378;2024-01-30T02:36:06;16.60;;;7.72;;
78167;SDS011;67410;42.698;23.378;2024-01-30T02:38:32;17.63;;;8.02;;
78167;SDS011;67410;42.698;23.378;2024-01-30T02:40:58;41.58;;;15.52;;
78167;SDS011;67410;42.698;23.378;2024-01-30T02:43:24;32.40;;;12.35;;
78167;SDS011;67410;42.698;23.378;2024-01-30T02:45:51;14.55;;;6.22;;
78167;SDS011;67410;42.698;23.378;2024-01-30T02:48:17;12.82;;;6.18;;
78167;SDS011;67410;42.698;23.378;2024-01-30T02:50:43;14.02;;;6.28;;
78167;SDS011;67410;42.698;23.378;2024-01-30T02:53:09;18.75;;;7.78;;
78167;SDS011;67410;42.698;23.378;2024-01-30T02:55:35;12.82;;;6.05;;
78167;SDS011;67410;42.698;23.378;2024-01-30T02:58:01;13.57;;;5.85;;
78167;SDS011;67410;42.698;23.378;2024-01-30T03:00:27;13.18;;;5.55;;
78167;SDS011;67410;42.698;23.378;2024-01-30T03:02:53;17.02;;;7.75;;
78167;SDS011;67410;42.698;23.378;2024-01-30T03:05:20;18.63;;;8.05;;
78167;SDS011;67410;42.698;23.378;2024-01-30T03:07:46;13.57;;;6.28;;
78167;SDS011;67410;42.698;23.378;2024-01-30T03:10:12;19.35;;;7.90;;
78167;SDS011;67410;42.698;23.378;2024-01-30T03:12:38;15.82;;;8.20;;
78167;SDS011;67410;42.698;23.378;2024-01-30T03:15:04;24.85;;;8.85;;
78167;SDS011;67410;42.698;23.378;2024-01-30T03:17:30;20.77;;;9.05;;
78167;SDS011;67410;42.698;23.378;2024-01-30T03:19:57;40.92;;;14.23;;
78167;SDS011;67410;42.698;23.378;2024-01-30T03:22:23;17.52;;;9.07;;
78167;SDS011;67410;42.698;23.378;2024-01-30T03:24:50;17.48;;;8.88;;
78167;SDS011;67410;42.698;23.378;2024-01-30T03:27:16;16.30;;;8.32;;
78167;SDS011;67410;42.698;23.378;2024-01-30T03:29:42;14.07;;;6.68;;
78167;SDS011;67410;42.698;23.378;2024-01-30T03:32:08;20.83;;;9.05;;
78167;SDS011;67410;42.698;23.378;2024-01-30T03:34:34;19.33;;;7.78;;
78167;SDS011;67410;42.698;23.378;2024-01-30T03:37:00;14.10;;;6.75;;
78167;SDS011;67410;42.698;23.378;2024-01-30T03:39:26;17.08;;;7.80;;
78167;SDS011;67410;42.698;23.378;2024-01-30T03:41:52;14.82;;;7.40;;
78167;SDS011;67410;42.698;23.378;2024-01-30T03:44:19;16.15;;;6.85;;
78167;SDS011;67410;42.698;23.378;2024-01-30T03:46:45;14.73;;;8.02;;
78167;SDS011;67410;42.698;23.378;2024-01-30T03:49:11;16.58;;;7.82;;
78167;SDS011;67410;42.698;23.378;2024-01-30T03:51:38;20.55;;;8.48;;
78167;SDS011;67410;42.698;23.378;2024-01-30T03:54:04;16.50;;;7.05;;
78167;SDS011;67410;42.698;23.378;2024-01-30T03:56:30;16.55;;;7.88;;
78167;SDS011;67410;42.698;23.378;2024-01-30T03:58:56;11.88;;;5.85;;
78167;SDS011;67410;42.698;23.378;2024-01-30T04:01:24;13.65;;;6.25;;
78167;SDS011;67410;42.698;23.378;2024-01-30T04:03:51;11.18;;;5.65;;
78167;SDS011;67410;42.698;23.378;2024-01-30T04:06:17;11.10;;;5.45;;
78167;SDS011;67410;42.698;23.378;2024-01-30T04:08:43;9.70;;;5.03;;
78167;SDS011;67410;42.698;23.378;2024-01-30T04:11:09;9.02;;;4.18;;
78167;SDS011;67410;42.698;23.378;2024-01-30T04:13:35;7.22;;;3.95;;
78167;SDS011;67410;42.698;23.378;2024-01-30T04:16:02;11.48;;;5.22;;
78167;SDS011;67410;42.698;23.378;2024-01-30T04:18:29;6.85;;;3.90;;
78167;SDS011;67410;42.698;23.378;2024-01-30T04:20:55;14.88;;;5.60;;
78167;SDS011;67410;42.698;23.378;2024-01-30T04:23:21;10.82;;;5.93;;
78167;SDS011;67410;42.698;23.378;2024-01-30T04:25:47;15.20;;;6.55;;
78167;SDS011;67410;42.698;23.378;2024-01-30T04:28:13;13.00;;;6.70;;
78167;SDS011;67410;42.698;23.378;2024-01-30T04:30:39;12.35;;;6.45;;
78167;SDS011;67410;42.698;23.378;2024-01-30T04:33:06;29.15;;;10.10;;
78167;SDS011;67410;42.698;23.378;2024-01-30T04:35:32;27.55;;;10.90;;
78167;SDS011;67410;42.698;23.378;2024-01-30T04:37:58;71.78;;;25.90;;
78167;SDS011;67410;42.698;23.378;2024-01-30T04:40:24;58.17;;;18.58;;
78167;SDS011;67410;42.698;23.378;2024-01-30T04:42:50;19.70;;;8.82;;
78167;SDS011;67410;42.698;23.378;2024-01-30T04:45:17;17.48;;;7.97;;
78167;SDS011;67410;42.698;23.378;2024-01-30T04:47:43;22.02;;;9.52;;
78167;SDS011;67410;42.698;23.378;2024-01-30T04:50:09;23.52;;;9.32;;
78167;SDS011;67410;42.698;23.378;2024-01-30T04:52:35;49.45;;;18.88;;
78167;SDS011;67410;42.698;23.378;2024-01-30T04:55:01;47.03;;;18.77;;
78167;SDS011;67410;42.698;23.378;2024-01-30T04:57:28;41.15;;;17.00;;
78167;SDS011;67410;42.698;23.378;2024-01-30T04:59:55;39.03;;;16.13;;
78167;SDS011;67410;42.698;23.378;2024-01-30T05:02:21;68.03;;;25.58;;
78167;SDS011;67410;42.698;23.378;2024-01-30T05:04:47;66.80;;;22.45;;
78167;SDS011;67410;42.698;23.378;2024-01-30T05:07:13;38.03;;;15.18;;
78167;SDS011;67410;42.698;23.378;2024-01-30T05:09:39;34.58;;;12.55;;
78167;SDS011;67410;42.698;23.378;2024-01-30T05:12:05;32.00;;;12.02;;
78167;SDS011;67410;42.698;23.378;2024-01-30T05:14:32;68.32;;;23.65;;
78167;SDS011;67410;42.698;23.378;2024-01-30T05:16:58;36.42;;;13.60;;
78167;SDS011;67410;42.698;23.378;2024-01-30T05:19:25;31.05;;;12.25;;
78167;SDS011;67410;42.698;23.378;2024-01-30T05:21:51;45.22;;;16.63;;
78167;SDS011;67410;42.698;23.378;2024-01-30T05:24:17;52.72;;;20.50;;
78167;SDS011;67410;42.698;23.378;2024-01-30T05:26:44;44.15;;;18.17;;
78167;SDS011;67410;42.698;23.378;2024-01-30T05:29:10;50.33;;;18.67;;
78167;SDS011;67410;42.698;23.378;2024-01-30T05:31:36;57.15;;;21.10;;
78167;SDS011;67410;42.698;23.378;2024-01-30T05:34:03;61.00;;;21.98;;
78167;SDS011;67410;42.698;23.378;2024-01-30T05:36:29;46.25;;;16.90;;
78167;SDS011;67410;42.698;23.378;2024-01-30T05:38:55;37.10;;;13.88;;
78167;SDS011;67410;42.698;23.378;2024-01-30T05:41:22;39.20;;;11.13;;
78167;SDS011;67410;42.698;23.378;2024-01-30T05:43:48;36.03;;;12.98;;
78167;SDS011;67410;42.698;23.378;2024-01-30T05:46:14;39.95;;;15.88;;
78167;SDS011;67410;42.698;23.378;2024-01-30T05:48:40;33.33;;;14.57;;
78167;SDS011;67410;42.698;23.378;2024-01-30T05:51:07;37.25;;;14.18;;
78167;SDS011;67410;42.698;23.378;2024-01-30T05:53:34;23.17;;;11.05;;
78167;SDS011;67410;42.698;23.378;2024-01-30T05:56:04;27.30;;;10.77;;
78167;SDS011;67410;42.698;23.378;2024-01-30T05:58:30;43.20;;;16.27;;
78167;SDS011;67410;42.698;23.378;2024-01-30T06:00:56;36.78;;;16.40;;
78167;SDS011;67410;42.698;23.378;2024-01-30T06:03:23;35.78;;;15.07;;
78167;SDS011;67410;42.698;23.378;2024-01-30T06:05:49;53.78;;;19.42;;
78167;SDS011;67410;42.698;23.378;2024-01-30T06:08:15;40.17;;;17.80;;
78167;SDS011;67410;42.698;23.378;2024-01-30T06:10:42;49.30;;;20.35;;
78167;SDS011;67410;42.698;23.378;2024-01-30T06:13:08;45.30;;;17.77;;
78167;SDS011;67410;42.698;23.378;2024-01-30T06:15:34;47.42;;;22.08;;
78167;SDS011;67410;42.698;23.378;2024-01-30T06:18:00;46.08;;;22.20;;
78167;SDS011;67410;42.698;23.378;2024-01-30T06:20:27;48.50;;;19.70;;
78167;SDS011;67410;42.698;23.378;2024-01-30T06:22:53;50.65;;;23.42;;
78167;SDS011;67410;42.698;23.378;2024-01-30T06:25:19;52.95;;;22.67;;
78167;SDS011;67410;42.698;23.378;2024-01-30T06:27:45;56.58;;;25.17;;
78167;SDS011;67410;42.698;23.378;2024-01-30T06:30:11;49.63;;;21.95;;
78167;SDS011;67410;42.698;23.378;2024-01-30T06:32:38;37.45;;;15.90;;
78167;SDS011;67410;42.698;23.378;2024-01-30T06:35:05;37.28;;;15.77;;
78167;SDS011;67410;42.698;23.378;2024-01-30T06:37:31;38.30;;;17.38;;
78167;SDS011;67410;42.698;23.378;2024-01-30T06:39:57;52.28;;;23.58;;
78167;SDS011;67410;42.698;23.378;2024-01-30T06:42:24;72.53;;;28.10;;
78167;SDS011;67410;42.698;23.378;2024-01-30T06:44:50;57.13;;;22.55;;
78167;SDS011;67410;42.698;23.378;2024-01-30T06:47:16;49.42;;;22.02;;
78167;SDS011;67410;42.698;23.378;2024-01-30T06:49:42;43.00;;;20.67;;
78167;SDS011;67410;42.698;23.378;2024-01-30T06:52:09;51.95;;;21.23;;
78167;SDS011;67410;42.698;23.378;2024-01-30T06:54:35;47.92;;;21.45;;
78167;SDS011;67410;42.698;23.378;2024-01-30T06:57:02;61.72;;;26.48;;
78167;SDS011;67410;42.698;23.378;2024-01-30T06:59:28;77.18;;;33.10;;
78167;SDS011;67410;42.698;23.378;2024-01-30T07:01:54;47.13;;;21.23;;
78167;SDS011;67410;42.698;23.378;2024-01-30T07:04:21;14.60;;;7.78;;
78167;SDS011;67410;42.698;23.378;2024-01-30T07:06:47;13.52;;;6.32;;
78167;SDS011;67410;42.698;23.378;2024-01-30T07:09:13;9.25;;;5.32;;
78167;SDS011;67410;42.698;23.378;2024-01-30T07:11:39;14.38;;;7.88;;
78167;SDS011;67410;42.698;23.378;2024-01-30T07:14:05;14.10;;;7.15;;
78167;SDS011;67410;42.698;23.378;2024-01-30T07:16:31;16.55;;;6.93;;
78167;SDS011;67410;42.698;23.378;2024-01-30T07:18:57;11.15;;;4.60;;
78167;SDS011;67410;42.698;23.378;2024-01-30T07:21:24;10.02;;;5.55;;
78167;SDS011;67410;42.698;23.378;2024-01-30T07:23:54;29.55;;;9.38;;
78167;SDS011;67410;42.698;23.378;2024-01-30T07:26:21;8.52;;;4.85;;
78167;SDS011;67410;42.698;23.378;2024-01-30T07:28:48;11.07;;;6.47;;
78167;SDS011;67410;42.698;23.378;2024-01-30T07:31:15;19.65;;;8.57;;
78167;SDS011;67410;42.698;23.378;2024-01-30T07:33:41;8.85;;;5.10;;
78167;SDS011;67410;42.698;23.378;2024-01-30T07:36:08;9.95;;;5.00;;
78167;SDS011;67410;42.698;23.378;2024-01-30T07:38:34;9.75;;;4.30;;
78167;SDS011;67410;42.698;23.378;2024-01-30T07:41:00;10.65;;;5.22;;
78167;SDS011;67410;42.698;23.378;2024-01-30T07:43:26;10.60;;;5.55;;
78167;SDS011;67410;42.698;23.378;2024-01-30T07:45:52;12.10;;;6.18;;
78167;SDS011;67410;42.698;23.378;2024-01-30T07:48:18;14.68;;;7.63;;
78167;SDS011;67410;42.698;23.378;2024-01-30T07:50:45;12.55;;;5.88;;
78167;SDS011;67410;42.698;23.378;2024-01-30T07:53:11;8.73;;;4.65;;
78167;SDS011;67410;42.698;23.378;2024-01-30T07:55:37;6.22;;;3.65;;
78167;SDS011;67410;42.698;23.378;2024-01-30T07:58:03;7.40;;;4.20;;
78167;SDS011;67410;42.698;23.378;2024-01-30T08:00:30;6.97;;;3.47;;
78167;SDS011;67410;42.698;23.378;2024-01-30T08:02:56;7.55;;;3.83;;
78167;SDS011;67410;42.698;23.378;2024-01-30T08:05:22;7.75;;;4.55;;
78167;SDS011;67410;42.698;23.378;2024-01-30T08:07:49;12.02;;;5.25;;
78167;SDS011;67410;42.698;23.378;2024-01-30T08:10:15;10.73;;;5.72;;
78167;SDS011;67410;42.698;23.378;2024-01-30T08:12:43;8.82;;;5.13;;
78167;SDS011;67410;42.698;23.378;2024-01-30T08:15:10;10.27;;;4.55;;
78167;SDS011;67410;42.698;23.378;2024-01-30T08:17:38;8.60;;;4.82;;
78167;SDS011;67410;42.698;23.378;2024-01-30T08:20:04;10.48;;;5.20;;
78167;SDS011;67410;42.698;23.378;2024-01-30T08:22:31;7.78;;;4.68;;
78167;SDS011;67410;42.698;23.378;2024-01-30T08:24:57;10.65;;;5.03;;
78167;SDS011;67410;42.698;23.378;2024-01-30T08:27:23;23.08;;;10.43;;
78167;SDS011;67410;42.698;23.378;2024-01-30T08:29:49;9.93;;;3.75;;
78167;SDS011;67410;42.698;23.378;2024-01-30T08:32:16;19.20;;;8.52;;
78167;SDS011;67410;42.698;23.378;2024-01-30T08:34:42;13.07;;;8.00;;
78167;SDS011;67410;42.698;23.378;2024-01-30T08:37:08;7.97;;;4.57;;
78167;SDS011;67410;42.698;23.378;2024-01-30T08:39:34;11.80;;;6.00;;
78167;SDS011;67410;42.698;23.378;2024-01-30T08:42:00;18.60;;;9.23;;
78167;SDS011;67410;42.698;23.378;2024-01-30T08:44:26;25.17;;;11.38;;
78167;SDS011;67410;42.698;23.378;2024-01-30T08:46:53;14.95;;;7.63;;
78167;SDS011;67410;42.698;23.378;2024-01-30T08:49:19;9.93;;;5.82;;
78167;SDS011;67410;42.698;23.378;2024-01-30T08:51:46;5.70;;;3.45;;
78167;SDS011;67410;42.698;23.378;2024-01-30T08:54:12;6.55;;;3.40;;
78167;SDS011;67410;42.698;23.378;2024-01-30T08:56:38;6.90;;;4.05;;
78167;SDS011;67410;42.698;23.378;2024-01-30T08:59:05;5.82;;;3.35;;
78167;SDS011;67410;42.698;23.378;2024-01-30T09:01:31;6.07;;;3.78;;
78167;SDS011;67410;42.698;23.378;2024-01-30T09:03:57;7.10;;;3.50;;
78167;SDS011;67410;42.698;23.378;2024-01-30T09:06:23;9.13;;;4.78;;
78167;SDS011;67410;42.698;23.378;2024-01-30T09:08:54;6.15;;;3.40;;
78167;SDS011;67410;42.698;23.378;2024-01-30T09:11:20;7.38;;;3.70;;
78167;SDS011;67410;42.698;23.378;2024-01-30T09:13:46;5.68;;;3.13;;
78167;SDS011;67410;42.698;23.378;2024-01-30T09:16:12;10.65;;;3.97;;
78167;SDS011;67410;42.698;23.378;2024-01-30T09:18:39;11.65;;;7.03;;
78167;SDS011;67410;42.698;23.378;2024-01-30T09:21:06;11.75;;;6.15;;
78167;SDS011;67410;42.698;23.378;2024-01-30T09:23:32;11.27;;;4.53;;
78167;SDS011;67410;42.698;23.378;2024-01-30T09:25:59;8.82;;;5.57;;
78167;SDS011;67410;42.698;23.378;2024-01-30T09:28:25;9.60;;;5.40;;
78167;SDS011;67410;42.698;23.378;2024-01-30T09:30:52;5.68;;;3.97;;
78167;SDS011;67410;42.698;23.378;2024-01-30T09:33:18;6.78;;;3.85;;
78167;SDS011;67410;42.698;23.378;2024-01-30T09:35:44;7.88;;;3.72;;
78167;SDS011;67410;42.698;23.378;2024-01-30T09:38:10;14.30;;;6.88;;
78167;SDS011;67410;42.698;23.378;2024-01-30T09:40:36;26.27;;;12.02;;
78167;SDS011;67410;42.698;23.378;2024-01-30T09:43:02;12.38;;;4.90;;
78167;SDS011;67410;42.698;23.378;2024-01-30T09:45:29;13.35;;;5.60;;
78167;SDS011;67410;42.698;23.378;2024-01-30T09:47:58;18.50;;;11.27;;
78167;SDS011;67410;42.698;23.378;2024-01-30T09:50:25;31.20;;;13.63;;
78167;SDS011;67410;42.698;23.378;2024-01-30T09:52:53;17.20;;;9.35;;
78167;SDS011;67410;42.698;23.378;2024-01-30T09:57:48;6.40;;;4.30;;
78167;SDS011;67410;42.698;23.378;2024-01-30T10:00:14;6.07;;;3.25;;
78167;SDS011;67410;42.698;23.378;2024-01-30T10:02:41;15.00;;;6.47;;
78167;SDS011;67410;42.698;23.378;2024-01-30T10:05:08;10.65;;;4.65;;
78167;SDS011;67410;42.698;23.378;2024-01-30T10:07:35;9.35;;;4.20;;
78167;SDS011;67410;42.698;23.378;2024-01-30T10:10:01;10.13;;;5.78;;
78167;SDS011;67410;42.698;23.378;2024-01-30T10:12:27;8.18;;;3.80;;
78167;SDS011;67410;42.698;23.378;2024-01-30T10:14:56;10.75;;;5.13;;
78167;SDS011;67410;42.698;23.378;2024-01-30T10:17:24;7.78;;;4.07;;
78167;SDS011;67410;42.698;23.378;2024-01-30T10:19:51;12.18;;;5.40;;
78167;SDS011;67410;42.698;23.378;2024-01-30T10:22:18;13.10;;;6.45;;
78167;SDS011;67410;42.698;23.378;2024-01-30T10:24:44;5.43;;;3.40;;
78167;SDS011;67410;42.698;23.378;2024-01-30T10:27:11;12.07;;;4.82;;
78167;SDS011;67410;42.698;23.378;2024-01-30T10:29:37;10.55;;;4.78;;
78167;SDS011;67410;42.698;23.378;2024-01-30T10:32:04;9.57;;;3.47;;
78167;SDS011;67410;42.698;23.378;2024-01-30T10:34:31;7.32;;;4.50;;
78167;SDS011;67410;42.698;23.378;2024-01-30T10:37:07;8.32;;;3.72;;
78167;SDS011;67410;42.698;23.378;2024-01-30T10:39:44;8.73;;;4.15;;
78167;SDS011;67410;42.698;23.378;2024-01-30T10:42:15;46.33;;;28.45;;
78167;SDS011;67410;42.698;23.378;2024-01-30T10:47:42;11.32;;;4.88;;
78167;SDS011;67410;42.698;23.378;2024-01-30T10:50:12;6.22;;;3.35;;
78167;SDS011;67410;42.698;23.378;2024-01-30T10:52:39;16.20;;;3.88;;
78167;SDS011;67410;42.698;23.378;2024-01-30T10:55:07;11.00;;;3.88;;
78167;SDS011;67410;42.698;23.378;2024-01-30T10:57:34;7.78;;;4.00;;
78167;SDS011;67410;42.698;23.378;2024-01-30T11:00:07;7.72;;;3.67;;
78167;SDS011;67410;42.698;23.378;2024-01-30T11:02:41;6.30;;;2.38;;
78167;SDS011;67410;42.698;23.378;2024-01-30T11:05:10;4.55;;;3.00;;
78167;SDS011;67410;42.698;23.378;2024-01-30T11:07:38;8.73;;;4.57;;
78167;SDS011;67410;42.698;23.378;2024-01-30T11:10:08;15.02;;;8.45;;
78167;SDS011;67410;42.698;23.378;2024-01-30T11:12:39;9.77;;;5.72;;
78167;SDS011;67410;42.698;23.378;2024-01-30T11:15:09;6.25;;;3.97;;
78167;SDS011;67410;42.698;23.378;2024-01-30T11:17:43;10.80;;;5.13;;
78167;SDS011;67410;42.698;23.378;2024-01-30T11:20:15;22.52;;;12.70;;
78167;SDS011;67410;42.698;23.378;2024-01-30T11:22:42;21.80;;;10.32;;
78167;SDS011;67410;42.698;23.378;2024-01-30T11:25:12;7.35;;;4.90;;
78167;SDS011;67410;42.698;23.378;2024-01-30T11:27:42;7.15;;;3.90;;
78167;SDS011;67410;42.698;23.378;2024-01-30T11:30:10;5.63;;;3.20;;
78167;SDS011;67410;42.698;23.378;2024-01-30T11:32:46;4.15;;;2.75;;
78167;SDS011;67410;42.698;23.378;2024-01-30T11:35:23;6.50;;;3.00;;
78167;SDS011;67410;42.698;23.378;2024-01-30T11:37:51;8.45;;;3.80;;
78167;SDS011;67410;42.698;23.378;2024-01-30T11:40:17;6.63;;;3.60;;
78167;SDS011;67410;42.698;23.378;2024-01-30T11:42:45;8.02;;;4.68;;
78167;SDS011;67410;42.698;23.378;2024-01-30T11:45:12;7.72;;;3.67;;
78167;SDS011;67410;42.698;23.378;2024-01-30T11:47:38;6.00;;;4.28;;
78167;SDS011;67410;42.698;23.378;2024-01-30T11:50:05;6.40;;;3.58;;
78167;SDS011;67410;42.698;23.378;2024-01-30T11:52:35;6.50;;;4.13;;
78167;SDS011;67410;42.698;23.378;2024-01-30T11:55:02;12.82;;;5.13;;
78167;SDS011;67410;42.698;23.378;2024-01-30T11:57:29;7.70;;;3.65;;
78167;SDS011;67410;42.698;23.378;2024-01-30T11:59:55;8.93;;;3.78;;
78167;SDS011;67410;42.698;23.378;2024-01-30T12:02:21;7.43;;;4.63;;
78167;SDS011;67410;42.698;23.378;2024-01-30T12:04:47;5.18;;;2.67;;
78167;SDS011;67410;42.698;23.378;2024-01-30T12:07:13;3.92;;;2.83;;
78167;SDS011;67410;42.698;23.378;2024-01-30T12:09:51;5.63;;;3.42;;
78167;SDS011;67410;42.698;23.378;2024-01-30T12:14:44;10.30;;;5.05;;
78167;SDS011;67410;42.698;23.378;2024-01-30T12:17:10;6.32;;;2.92;;
78167;SDS011;67410;42.698;23.378;2024-01-30T12:19:38;6.18;;;2.78;;
78167;SDS011;67410;42.698;23.378;2024-01-30T12:22:04;7.63;;;2.88;;
78167;SDS011;67410;42.698;23.378;2024-01-30T12:24:30;13.80;;;6.53;;
78167;SDS011;67410;42.698;23.378;2024-01-30T12:26:57;6.15;;;4.00;;
78167;SDS011;67410;42.698;23.378;2024-01-30T12:29:24;6.53;;;4.07;;
78167;SDS011;67410;42.698;23.378;2024-01-30T12:31:52;8.57;;;4.40;;
78167;SDS011;67410;42.698;23.378;2024-01-30T12:34:20;9.80;;;5.70;;
78167;SDS011;67410;42.698;23.378;2024-01-30T12:36:47;6.30;;;3.40;;
78167;SDS011;67410;42.698;23.378;2024-01-30T12:39:14;7.47;;;4.57;;
78167;SDS011;67410;42.698;23.378;2024-01-30T12:41:41;10.23;;;6.10;;
78167;SDS011;67410;42.698;23.378;2024-01-30T12:44:07;17.15;;;7.43;;
78167;SDS011;67410;42.698;23.378;2024-01-30T12:46:34;24.13;;;10.02;;
78167;SDS011;67410;42.698;23.378;2024-01-30T12:49:00;8.73;;;4.68;;
78167;SDS011;67410;42.698;23.378;2024-01-30T12:51:27;14.50;;;5.72;;
78167;SDS011;67410;42.698;23.378;2024-01-30T12:53:53;8.15;;;3.45;;
78167;SDS011;67410;42.698;23.378;2024-01-30T12:56:19;8.00;;;3.92;;
78167;SDS011;67410;42.698;23.378;2024-01-30T12:58:45;7.93;;;3.80;;
78167;SDS011;67410;42.698;23.378;2024-01-30T13:01:12;8.75;;;4.72;;
78167;SDS011;67410;42.698;23.378;2024-01-30T13:03:38;16.63;;;6.90;;
78167;SDS011;67410;42.698;23.378;2024-01-30T13:06:04;16.08;;;7.63;;
78167;SDS011;67410;42.698;23.378;2024-01-30T13:08:30;17.17;;;6.90;;
78167;SDS011;67410;42.698;23.378;2024-01-30T13:10:56;22.23;;;10.07;;
78167;SDS011;67410;42.698;23.378;2024-01-30T13:13:22;22.75;;;9.35;;
78167;SDS011;67410;42.698;23.378;2024-01-30T13:15:48;14.15;;;7.00;;
78167;SDS011;67410;42.698;23.378;2024-01-30T13:18:14;26.00;;;10.45;;
78167;SDS011;67410;42.698;23.378;2024-01-30T13:20:41;11.00;;;5.88;;
78167;SDS011;67410;42.698;23.378;2024-01-30T13:23:07;10.27;;;5.38;;
78167;SDS011;67410;42.698;23.378;2024-01-30T13:25:33;8.35;;;4.72;;
78167;SDS011;67410;42.698;23.378;2024-01-30T13:27:59;9.52;;;5.35;;
78167;SDS011;67410;42.698;23.378;2024-01-30T13:30:25;9.38;;;4.75;;
78167;SDS011;67410;42.698;23.378;2024-01-30T13:32:51;9.50;;;4.82;;
78167;SDS011;67410;42.698;23.378;2024-01-30T13:35:18;15.25;;;5.93;;
78167;SDS011;67410;42.698;23.378;2024-01-30T13:37:44;10.23;;;4.65;;
78167;SDS011;67410;42.698;23.378;2024-01-30T13:40:10;9.82;;;4.63;;
78167;SDS011;67410;42.698;23.378;2024-01-30T13:42:36;6.50;;;3.60;;
78167;SDS011;67410;42.698;23.378;2024-01-30T13:45:02;9.85;;;4.90;;
78167;SDS011;67410;42.698;23.378;2024-01-30T13:47:29;8.75;;;4.78;;
78167;SDS011;67410;42.698;23.378;2024-01-30T13:49:55;7.50;;;4.25;;
78167;SDS011;67410;42.698;23.378;2024-01-30T13:52:21;9.10;;;4.40;;
78167;SDS011;67410;42.698;23.378;2024-01-30T13:54:48;7.78;;;4.28;;
78167;SDS011;67410;42.698;23.378;2024-01-30T13:57:14;12.48;;;5.57;;
78167;SDS011;67410;42.698;23.378;2024-01-30T13:59:40;11.27;;;5.25;;
78167;SDS011;67410;42.698;23.378;2024-01-30T14:02:06;17.90;;;7.13;;
78167;SDS011;67410;42.698;23.378;2024-01-30T14:04:33;7.78;;;4.18;;
78167;SDS011;67410;42.698;23.378;2024-01-30T14:07:00;11.35;;;5.13;;
78167;SDS011;67410;42.698;23.378;2024-01-30T14:09:28;11.45;;;5.50;;
78167;SDS011;67410;42.698;23.378;2024-01-30T14:11:55;8.70;;;5.13;;
78167;SDS011;67410;42.698;23.378;2024-01-30T14:14:21;6.75;;;3.80;;
78167;SDS011;67410;42.698;23.378;2024-01-30T14:16:47;7.43;;;3.83;;
78167;SDS011;67410;42.698;23.378;2024-01-30T14:19:13;9.23;;;3.90;;
78167;SDS011;67410;42.698;23.378;2024-01-30T14:21:39;7.85;;;4.07;;
78167;SDS011;67410;42.698;23.378;2024-01-30T14:24:06;6.55;;;3.72;;
78167;SDS011;67410;42.698;23.378;2024-01-30T14:26:32;8.30;;;4.88;;